sensor_id;sensor_type;location;lat;lon;timestamp;pressure;altitude;pressure_sealevel;temperature;humidity
53011;BME280;42803;55.762;38.084;2023-04-01T00:00:10;98173.09;;;-0.70;100.00
53011;BME280;42803;55.762;38.084;2023-04-01T00:02:39;98172.50;;;-0.68;100.00
53011;BME280;42803;55.762;38.084;2023-04-01T00:05:10;98170.84;;;-0.67;100.00
53011;BME280;42803;55.762;38.084;2023-04-01T00:07:39;98170.38;;;-0.63;100.00
53011;BME280;42803;55.762;38.084;2023-04-01T00:10:12;98166.28;;;-0.61;100.00
53011;BME280;42803;55.762;38.084;2023-04-01T00:12:41;98168.84;;;-0.61;100.00
53011;BME280;42803;55.762;38.084;2023-04-01T00:15:11;98169.47;;;-0.64;100.00
53011;BME280;42803;55.762;38.084;2023-04-01T00:17:42;98170.38;;;-0.63;100.00
53011;BME280;42803;55.762;38.084;2023-04-01T00:20:12;98171.72;;;-0.67;100.00
53011;BME280;42803;55.762;38.084;2023-04-01T00:22:42;98172.81;;;-0.65;100.00
53011;BME280;42803;55.762;38.084;2023-04-01T00:25:13;98173.09;;;-0.70;100.00
53011;BME280;42803;55.762;38.084;2023-04-01T00:27:42;98170.38;;;-0.72;100.00
53011;BME280;42803;55.762;38.084;2023-04-01T00:30:12;98167.66;;;-0.74;100.00
53011;BME280;42803;55.762;38.084;2023-04-01T00:32:41;98170.38;;;-0.72;100.00
53011;BME280;42803;55.762;38.084;2023-04-01T00:35:10;98177.44;;;-0.69;100.00
53011;BME280;42803;55.762;38.084;2023-04-01T00:37:40;98169.75;;;-0.69;100.00
53011;BME280;42803;55.762;38.084;2023-04-01T00:40:24;98169.75;;;-0.69;100.00
53011;BME280;42803;55.762;38.084;2023-04-01T00:42:54;98168.88;;;-0.70;100.00
53011;BME280;42803;55.762;38.084;2023-04-01T00:45:33;98166.16;;;-0.71;100.00
53011;BME280;42803;55.762;38.084;2023-04-01T00:48:06;98163.16;;;-0.76;100.00
53011;BME280;42803;55.762;38.084;2023-04-01T00:50:37;98160.72;;;-0.75;100.00
53011;BME280;42803;55.762;38.084;2023-04-01T00:53:07;98162.22;;;-0.77;100.00
53011;BME280;42803;55.762;38.084;2023-04-01T00:55:42;98166.63;;;-0.76;100.00
53011;BME280;42803;55.762;38.084;2023-04-01T00:58:13;98165.53;;;-0.78;100.00
53011;BME280;42803;55.762;38.084;2023-04-01T01:00:44;98174.00;;;-0.79;100.00
53011;BME280;42803;55.762;38.084;2023-04-01T01:03:15;98170.06;;;-0.75;100.00
53011;BME280;42803;55.762;38.084;2023-04-01T01:06:03;98169.50;;;-0.72;100.00
53011;BME280;42803;55.762;38.084;2023-04-01T01:08:52;98167.66;;;-0.74;100.00
53011;BME280;42803;55.762;38.084;2023-04-01T01:11:35;98169.31;;;-0.74;100.00
53011;BME280;42803;55.762;38.084;2023-04-01T01:14:28;98170.06;;;-0.75;100.00
53011;BME280;42803;55.762;38.084;2023-04-01T01:17:10;98165.72;;;-0.76;100.00
53011;BME280;42803;55.762;38.084;2023-04-01T01:19:57;98170.06;;;-0.75;100.00
53011;BME280;42803;55.762;38.084;2023-04-01T01:22:57;98168.09;;;-0.78;100.00
53011;BME280;42803;55.762;38.084;2023-04-01T01:25:39;98165.72;;;-0.76;100.00
53011;BME280;42803;55.762;38.084;2023-04-01T01:28:31;98169.50;;;-0.72;100.00
53011;BME280;42803;55.762;38.084;2023-04-01T01:31:11;98173.69;;;-0.64;100.00
53011;BME280;42803;55.762;38.084;2023-04-01T01:34:02;98168.28;;;-0.67;100.00
53011;BME280;42803;55.762;38.084;2023-04-01T01:36:38;98167.50;;;-0.66;100.00
53011;BME280;42803;55.762;38.084;2023-04-01T01:39:12;98161.47;;;-0.67;100.00
53011;BME280;42803;55.762;38.084;2023-04-01T01:41:45;98160.72;;;-0.66;100.00
53011;BME280;42803;55.762;38.084;2023-04-01T01:44:17;98162.84;;;-0.70;100.00
53011;BME280;42803;55.762;38.084;2023-04-01T01:46:47;98160.72;;;-0.66;100.00
53011;BME280;42803;55.762;38.084;2023-04-01T01:49:18;98164.19;;;-0.65;100.00
53011;BME280;42803;55.762;38.084;2023-04-01T01:51:49;98163.75;;;-0.70;100.00
53011;BME280;42803;55.762;38.084;2023-04-01T01:54:18;98164.78;;;-0.77;100.00
53011;BME280;42803;55.762;38.084;2023-04-01T01:56:51;98171.44;;;-0.79;100.00
53011;BME280;42803;55.762;38.084;2023-04-01T01:59:24;98174.00;;;-0.79;100.00
53011;BME280;42803;55.762;38.084;2023-04-01T02:01:55;98179.25;;;-0.77;100.00
53011;BME280;42803;55.762;38.084;2023-04-01T02:04:26;98178.34;;;-0.78;100.00
53011;BME280;42803;55.762;38.084;2023-04-01T02:07:00;98172.47;;;-0.77;100.00
53011;BME280;42803;55.762;38.084;2023-04-01T02:09:31;98175.97;;;-0.76;100.00
53011;BME280;42803;55.762;38.084;2023-04-01T02:12:04;98175.34;;;-0.74;100.00
53011;BME280;42803;55.762;38.084;2023-04-01T02:14:42;98174.63;;;-0.72;100.00
53011;BME280;42803;55.762;38.084;2023-04-01T02:17:16;98187.41;;;-0.72;100.00
53011;BME280;42803;55.762;38.084;2023-04-01T02:19:48;98189.69;;;-0.76;100.00
53011;BME280;42803;55.762;38.084;2023-04-01T02:22:23;98189.69;;;-0.76;100.00
53011;BME280;42803;55.762;38.084;2023-04-01T02:24:57;98188.59;;;-0.78;100.00
53011;BME280;42803;55.762;38.084;2023-04-01T02:27:27;98187.84;;;-0.77;100.00
53011;BME280;42803;55.762;38.084;2023-04-01T02:29:57;98191.47;;;-0.75;100.00
53011;BME280;42803;55.762;38.084;2023-04-01T02:32:27;98192.53;;;-0.72;100.00
53011;BME280;42803;55.762;38.084;2023-04-01T02:34:58;98184.56;;;-0.76;100.00
53011;BME280;42803;55.762;38.084;2023-04-01T02:37:32;98189.69;;;-0.76;100.00
53011;BME280;42803;55.762;38.084;2023-04-01T02:40:05;98196.28;;;-0.78;100.00
53011;BME280;42803;55.762;38.084;2023-04-01T02:42:35;98186.03;;;-0.78;100.00
53011;BME280;42803;55.762;38.084;2023-04-01T02:45:05;98187.56;;;-0.80;100.00
53011;BME280;42803;55.762;38.084;2023-04-01T02:47:34;98184.25;;;-0.79;100.00
53011;BME280;42803;55.762;38.084;2023-04-01T02:50:04;98191.47;;;-0.75;100.00
53011;BME280;42803;55.762;38.084;2023-04-01T02:52:35;98180.00;;;-0.69;100.00
53011;BME280;42803;55.762;38.084;2023-04-01T02:55:06;98194.19;;;-0.64;100.00
53011;BME280;42803;55.762;38.084;2023-04-01T02:57:35;98196.00;;;-0.63;100.00
53011;BME280;42803;55.762;38.084;2023-04-01T03:00:05;98195.53;;;-0.59;100.00
53011;BME280;42803;55.762;38.084;2023-04-01T03:02:38;98196.75;;;-0.64;100.00
53011;BME280;42803;55.762;38.084;2023-04-01T03:05:08;98198.69;;;-0.62;100.00
53011;BME280;42803;55.762;38.084;2023-04-01T03:07:38;98197.50;;;-0.57;100.00
53011;BME280;42803;55.762;38.084;2023-04-01T03:10:09;98203.69;;;-0.55;100.00
53011;BME280;42803;55.762;38.084;2023-04-01T03:12:39;98206.25;;;-0.55;100.00
53011;BME280;42803;55.762;38.084;2023-04-01T03:15:10;98206.41;;;-0.53;100.00
53011;BME280;42803;55.762;38.084;2023-04-01T03:17:40;98204.28;;;-0.48;100.00
53011;BME280;42803;55.762;38.084;2023-04-01T03:20:11;98212.28;;;-0.45;100.00
53011;BME280;42803;55.762;38.084;2023-04-01T03:22:41;98208.38;;;-0.42;100.00
53011;BME280;42803;55.762;38.084;2023-04-01T03:25:10;98205.94;;;-0.40;100.00
53011;BME280;42803;55.762;38.084;2023-04-01T03:27:39;98215.59;;;-0.38;100.00
53011;BME280;42803;55.762;38.084;2023-04-01T03:30:09;98217.53;;;-0.35;100.00
53011;BME280;42803;55.762;38.084;2023-04-01T03:32:47;98223.09;;;-0.31;100.00
53011;BME280;42803;55.762;38.084;2023-04-01T03:35:16;98230.06;;;-0.30;100.00
53011;BME280;42803;55.762;38.084;2023-04-01T03:37:47;98226.75;;;-0.29;100.00
53011;BME280;42803;55.762;38.084;2023-04-01T03:40:16;98226.28;;;-0.25;100.00
53011;BME280;42803;55.762;38.084;2023-04-01T03:42:45;98229.59;;;-0.26;100.00
53011;BME280;42803;55.762;38.084;2023-04-01T03:45:15;98235.19;;;-0.21;100.00
53011;BME280;42803;55.762;38.084;2023-04-01T03:47:44;98231.13;;;-0.19;100.00
53011;BME280;42803;55.762;38.084;2023-04-01T03:50:13;98235.16;;;-0.12;100.00
53011;BME280;42803;55.762;38.084;2023-04-01T03:52:42;98225.81;;;-0.12;100.00
53011;BME280;42803;55.762;38.084;2023-04-01T03:55:13;98231.84;;;-0.03;100.00
53011;BME280;42803;55.762;38.084;2023-04-01T03:57:43;98226.69;;;0.06;100.00
53011;BME280;42803;55.762;38.084;2023-04-01T04:00:18;98231.97;;;0.16;100.00
53011;BME280;42803;55.762;38.084;2023-04-01T04:02:53;98234.78;;;0.28;100.00
53011;BME280;42803;55.762;38.084;2023-04-01T04:05:28;98232.34;;;0.30;100.00
53011;BME280;42803;55.762;38.084;2023-04-01T04:07:57;98235.53;;;0.36;100.00
53011;BME280;42803;55.762;38.084;2023-04-01T04:10:28;98238.53;;;0.40;100.00
53011;BME280;42803;55.762;38.084;2023-04-01T04:12:57;98246.66;;;0.45;100.00
53011;BME280;42803;55.762;38.084;2023-04-01T04:15:29;98249.22;;;0.45;100.00
53011;BME280;42803;55.762;38.084;2023-04-01T04:17:58;98256.44;;;0.49;100.00
53011;BME280;42803;55.762;38.084;2023-04-01T04:20:27;98259.66;;;0.46;100.00
53011;BME280;42803;55.762;38.084;2023-04-01T04:22:56;98263.44;;;0.41;100.00
53011;BME280;42803;55.762;38.084;2023-04-01T04:25:25;98266.75;;;0.40;100.00
53011;BME280;42803;55.762;38.084;2023-04-01T04:27:56;98266.31;;;0.36;100.00
53011;BME280;42803;55.762;38.084;2023-04-01T04:30:25;98267.81;;;0.34;100.00
53011;BME280;42803;55.762;38.084;2023-04-01T04:32:54;98267.25;;;0.28;100.00
53011;BME280;42803;55.762;38.084;2023-04-01T04:35:23;98275.25;;;0.31;100.00
53011;BME280;42803;55.762;38.084;2023-04-01T04:37:52;98274.63;;;0.33;100.00
53011;BME280;42803;55.762;38.084;2023-04-01T04:40:21;98272.34;;;0.36;100.00
53011;BME280;42803;55.762;38.084;2023-04-01T04:42:50;98277.94;;;0.41;100.00
53011;BME280;42803;55.762;38.084;2023-04-01T04:45:21;98269.47;;;0.42;100.00
53011;BME280;42803;55.762;38.084;2023-04-01T04:47:54;98288.31;;;0.51;100.00
53011;BME280;42803;55.762;38.084;2023-04-01T04:50:24;98288.16;;;0.58;100.00
53011;BME280;42803;55.762;38.084;2023-04-01T04:52:53;98287.22;;;0.66;100.00
53011;BME280;42803;55.762;38.084;2023-04-01T04:55:23;98279.34;;;0.73;100.00
53011;BME280;42803;55.762;38.084;2023-04-01T04:58:10;98283.84;;;0.85;100.00
53011;BME280;42803;55.762;38.084;2023-04-01T05:00:44;98285.75;;;0.87;100.00
53011;BME280;42803;55.762;38.084;2023-04-01T05:03:20;98290.59;;;0.93;100.00
53011;BME280;42803;55.762;38.084;2023-04-01T05:05:52;98293.72;;;0.99;100.00
53011;BME280;42803;55.762;38.084;2023-04-01T05:08:22;98292.81;;;1.07;100.00
53011;BME280;42803;55.762;38.084;2023-04-01T05:10:51;98289.28;;;1.15;100.00
53011;BME280;42803;55.762;38.084;2023-04-01T05:13:20;98281.09;;;1.19;100.00
53011;BME280;42803;55.762;38.084;2023-04-01T05:15:51;98290.88;;;1.24;100.00
53011;BME280;42803;55.762;38.084;2023-04-01T05:18:21;98291.91;;;1.26;100.00
53011;BME280;42803;55.762;38.084;2023-04-01T05:20:51;98291.91;;;1.26;100.00
53011;BME280;42803;55.762;38.084;2023-04-01T05:23:21;98289.63;;;1.29;100.00
53011;BME280;42803;55.762;38.084;2023-04-01T05:25:51;98290.00;;;1.23;100.00
53011;BME280;42803;55.762;38.084;2023-04-01T05:28:21;98298.19;;;1.19;100.00
53011;BME280;42803;55.762;38.084;2023-04-01T05:30:52;98294.50;;;1.26;100.00
53011;BME280;42803;55.762;38.084;2023-04-01T05:33:24;98305.06;;;1.29;100.00
53011;BME280;42803;55.762;38.084;2023-04-01T05:35:53;98297.66;;;1.32;100.00
53011;BME280;42803;55.762;38.084;2023-04-01T05:38:22;98302.72;;;1.40;100.00
53011;BME280;42803;55.762;38.084;2023-04-01T05:40:58;98298.56;;;1.51;100.00
53011;BME280;42803;55.762;38.084;2023-04-01T05:43:28;98287.97;;;1.57;100.00
53011;BME280;42803;55.762;38.084;2023-04-01T05:46:08;98298.19;;;1.65;100.00
53011;BME280;42803;55.762;38.084;2023-04-01T05:48:47;98299.00;;;1.75;100.00
53011;BME280;42803;55.762;38.084;2023-04-01T05:51:16;98299.59;;;1.81;100.00
53011;BME280;42803;55.762;38.084;2023-04-01T05:53:45;98295.47;;;1.83;100.00
53011;BME280;42803;55.762;38.084;2023-04-01T05:56:15;98302.94;;;1.80;100.00
53011;BME280;42803;55.762;38.084;2023-04-01T05:58:51;98300.91;;;1.86;100.00
53011;BME280;42803;55.762;38.084;2023-04-01T06:01:24;98308.13;;;1.90;100.00
53011;BME280;42803;55.762;38.084;2023-04-01T06:03:53;98311.97;;;1.85;100.00
53011;BME280;42803;55.762;38.084;2023-04-01T06:06:25;98316.69;;;1.99;100.00
53011;BME280;42803;55.762;38.084;2023-04-01T06:09:15;98320.88;;;2.07;100.00
53011;BME280;42803;55.762;38.084;2023-04-01T06:12:28;98318.09;;;2.14;100.00
53011;BME280;42803;55.762;38.084;2023-04-01T06:15:11;98324.66;;;2.21;100.00
53011;BME280;42803;55.762;38.084;2023-04-01T06:17:55;98324.31;;;2.27;100.00
53011;BME280;42803;55.762;38.084;2023-04-01T06:20:33;98329.75;;;2.30;100.00
53011;BME280;42803;55.762;38.084;2023-04-01T06:23:17;98328.50;;;2.35;100.00
53011;BME280;42803;55.762;38.084;2023-04-01T06:25:58;98333.34;;;2.32;100.00
53011;BME280;42803;55.762;38.084;2023-04-01T06:29:03;98324.91;;;2.43;100.00
53011;BME280;42803;55.762;38.084;2023-04-01T06:31:48;98334.00;;;2.58;100.00
53011;BME280;42803;55.762;38.084;2023-04-01T06:34:49;98327.94;;;2.58;100.00
53011;BME280;42803;55.762;38.084;2023-04-01T06:37:37;98335.34;;;2.74;100.00
53011;BME280;42803;55.762;38.084;2023-04-01T06:40:29;98343.13;;;2.84;100.00
53011;BME280;42803;55.762;38.084;2023-04-01T06:43:16;98334.16;;;2.99;100.00
53011;BME280;42803;55.762;38.084;2023-04-01T06:46:13;98336.28;;;3.24;100.00
53011;BME280;42803;55.762;38.084;2023-04-01T06:49:24;98336.94;;;3.21;100.00
53011;BME280;42803;55.762;38.084;2023-04-01T06:52:21;98336.34;;;3.64;100.00
53011;BME280;42803;55.762;38.084;2023-04-01T06:55:23;98337.63;;;3.80;100.00
53011;BME280;42803;55.762;38.084;2023-04-01T06:58:20;98340.47;;;3.83;100.00
53011;BME280;42803;55.762;38.084;2023-04-01T07:00:52;98344.09;;;3.75;100.00
53011;BME280;42803;55.762;38.084;2023-04-01T07:03:26;98346.44;;;3.82;100.00
53011;BME280;42803;55.762;38.084;2023-04-01T07:06:03;98342.66;;;4.09;100.00
53011;BME280;42803;55.762;38.084;2023-04-01T07:08:42;98334.88;;;4.29;100.00
53011;BME280;42803;55.762;38.084;2023-04-01T07:11:21;98334.09;;;4.73;100.00
53011;BME280;42803;55.762;38.084;2023-04-01T07:14:27;98345.75;;;5.22;100.00
53011;BME280;42803;55.762;38.084;2023-04-01T07:17:04;98336.31;;;5.22;100.00
53011;BME280;42803;55.762;38.084;2023-04-01T07:19:39;98338.25;;;4.71;100.00
53011;BME280;42803;55.762;38.084;2023-04-01T07:22:21;98347.81;;;4.61;100.00
53011;BME280;42803;55.762;38.084;2023-04-01T07:25:11;98347.00;;;4.30;100.00
53011;BME280;42803;55.762;38.084;2023-04-01T07:27:43;98348.06;;;4.22;100.00
53011;BME280;42803;55.762;38.084;2023-04-01T07:30:15;98353.63;;;4.06;100.00
53011;BME280;42803;55.762;38.084;2023-04-01T07:32:47;98352.34;;;3.91;100.00
53011;BME280;42803;55.762;38.084;2023-04-01T07:35:25;98357.53;;;4.01;100.00
53011;BME280;42803;55.762;38.084;2023-04-01T07:38:08;98360.47;;;4.16;100.00
53011;BME280;42803;55.762;38.084;2023-04-01T07:40:46;98363.13;;;4.38;100.00
53011;BME280;42803;55.762;38.084;2023-04-01T07:43:27;98362.47;;;4.51;100.00
53011;BME280;42803;55.762;38.084;2023-04-01T07:46:36;98365.97;;;4.83;100.00
53011;BME280;42803;55.762;38.084;2023-04-01T07:49:13;98368.06;;;5.09;100.00
53011;BME280;42803;55.762;38.084;2023-04-01T07:51:51;98375.94;;;4.89;100.00
53011;BME280;42803;55.762;38.084;2023-04-01T07:54:31;98374.81;;;4.75;100.00
53011;BME280;42803;55.762;38.084;2023-04-01T07:57:12;98392.59;;;4.50;100.00
53011;BME280;42803;55.762;38.084;2023-04-01T07:59:58;98385.84;;;4.62;100.00
53011;BME280;42803;55.762;38.084;2023-04-01T08:03:05;98384.69;;;4.91;100.00
53011;BME280;42803;55.762;38.084;2023-04-01T08:05:45;98384.16;;;4.95;100.00
53011;BME280;42803;55.762;38.084;2023-04-01T08:08:20;98388.19;;;4.92;100.00
53011;BME280;42803;55.762;38.084;2023-04-01T08:11:25;98391.88;;;5.05;100.00
53011;BME280;42803;55.762;38.084;2023-04-01T08:14:22;98391.25;;;5.30;100.00
53011;BME280;42803;55.762;38.084;2023-04-01T08:17:16;98395.53;;;5.51;100.00
53011;BME280;42803;55.762;38.084;2023-04-01T08:19:59;98401.97;;;5.56;100.00
53011;BME280;42803;55.762;38.084;2023-04-01T08:22:37;98401.38;;;5.71;100.00
53011;BME280;42803;55.762;38.084;2023-04-01T08:25:34;98404.59;;;6.12;100.00
53011;BME280;42803;55.762;38.084;2023-04-01T08:28:13;98400.91;;;6.32;100.00
53011;BME280;42803;55.762;38.084;2023-04-01T08:30:50;98408.25;;;6.26;98.35
53011;BME280;42803;55.762;38.084;2023-04-01T08:33:24;98410.59;;;6.23;100.00
53011;BME280;42803;55.762;38.084;2023-04-01T08:36:05;98411.72;;;6.15;100.00
53011;BME280;42803;55.762;38.084;2023-04-01T08:38:41;98405.94;;;5.85;100.00
53011;BME280;42803;55.762;38.084;2023-04-01T08:41:15;98407.97;;;6.11;100.00
53011;BME280;42803;55.762;38.084;2023-04-01T08:47:28;98416.47;;;6.44;99.86
53011;BME280;42803;55.762;38.084;2023-04-01T08:50:24;98414.94;;;6.81;96.71
53011;BME280;42803;55.762;38.084;2023-04-01T08:53:25;98419.00;;;6.89;94.28
53011;BME280;42803;55.762;38.084;2023-04-01T08:56:06;98414.84;;;6.91;93.41
53011;BME280;42803;55.762;38.084;2023-04-01T09:01:58;98419.22;;;7.27;90.82
53011;BME280;42803;55.762;38.084;2023-04-01T09:08:31;98420.47;;;6.74;92.33
53011;BME280;42803;55.762;38.084;2023-04-01T09:11:07;98419.25;;;6.69;93.01
53011;BME280;42803;55.762;38.084;2023-04-01T09:14:11;98423.53;;;6.80;93.13
53011;BME280;42803;55.762;38.084;2023-04-01T09:23:17;98425.31;;;7.16;89.33
53011;BME280;42803;55.762;38.084;2023-04-01T09:26:12;98429.25;;;7.23;89.79
53011;BME280;42803;55.762;38.084;2023-04-01T09:28:55;98428.78;;;7.77;88.64
53011;BME280;42803;55.762;38.084;2023-04-01T09:31:45;98432.03;;;7.49;87.25
53011;BME280;42803;55.762;38.084;2023-04-01T09:34:53;98449.69;;;6.95;89.49
53011;BME280;42803;55.762;38.084;2023-04-01T09:37:34;98445.03;;;7.38;90.72
53011;BME280;42803;55.762;38.084;2023-04-01T09:40:16;98440.91;;;7.65;88.24
53011;BME280;42803;55.762;38.084;2023-04-01T09:43:09;98442.88;;;7.55;86.86
53011;BME280;42803;55.762;38.084;2023-04-01T09:46:03;98440.25;;;7.92;84.83
53011;BME280;42803;55.762;38.084;2023-04-01T09:49:02;98444.09;;;8.22;83.18
53011;BME280;42803;55.762;38.084;2023-04-01T09:51:41;98450.78;;;8.19;81.63
53011;BME280;42803;55.762;38.084;2023-04-01T09:54:27;98450.75;;;8.69;80.61
53011;BME280;42803;55.762;38.084;2023-04-01T09:57:16;98456.38;;;8.75;85.15
53011;BME280;42803;55.762;38.084;2023-04-01T10:00:36;98456.19;;;9.51;79.48
53011;BME280;42803;55.762;38.084;2023-04-01T10:03:44;98455.19;;;9.63;76.15
53011;BME280;42803;55.762;38.084;2023-04-01T10:25:48;98473.34;;;9.21;76.24
53011;BME280;42803;55.762;38.084;2023-04-01T10:28:38;98476.63;;;9.06;77.89
53011;BME280;42803;55.762;38.084;2023-04-01T10:32:08;98480.22;;;8.94;77.18
53011;BME280;42803;55.762;38.084;2023-04-01T10:35:36;98483.84;;;9.23;75.55
53011;BME280;42803;55.762;38.084;2023-04-01T10:38:33;98482.53;;;9.69;74.11
53011;BME280;42803;55.762;38.084;2023-04-01T10:45:07;98490.03;;;9.12;74.21
53011;BME280;42803;55.762;38.084;2023-04-01T10:51:29;98487.09;;;8.81;76.84
53011;BME280;42803;55.762;38.084;2023-04-01T10:54:18;98483.06;;;9.37;78.60
53011;BME280;42803;55.762;38.084;2023-04-01T10:57:23;98478.22;;;9.57;72.83
53011;BME280;42803;55.762;38.084;2023-04-01T11:01:03;98479.84;;;9.15;75.14
53011;BME280;42803;55.762;38.084;2023-04-01T11:20:07;98483.94;;;9.77;70.36
53011;BME280;42803;55.762;38.084;2023-04-01T11:22:56;98488.75;;;9.99;69.05
53011;BME280;42803;55.762;38.084;2023-04-01T11:29:24;98496.09;;;9.50;69.85
53011;BME280;42803;55.762;38.084;2023-04-01T11:32:22;98496.56;;;9.58;67.38
53011;BME280;42803;55.762;38.084;2023-04-01T11:35:08;98498.16;;;9.69;67.14
53011;BME280;42803;55.762;38.084;2023-04-01T11:37:44;98500.75;;;9.83;66.92
53011;BME280;42803;55.762;38.084;2023-04-01T11:41:02;98494.63;;;9.82;67.19
53011;BME280;42803;55.762;38.084;2023-04-01T11:44:20;98489.84;;;9.48;67.82
53011;BME280;42803;55.762;38.084;2023-04-01T11:47:19;98499.75;;;9.14;70.44
53011;BME280;42803;55.762;38.084;2023-04-01T11:50:10;98494.47;;;9.39;71.14
53011;BME280;42803;55.762;38.084;2023-04-01T11:53:15;98498.25;;;9.58;68.14
53011;BME280;42803;55.762;38.084;2023-04-01T11:55:56;98502.28;;;9.39;69.16
53011;BME280;42803;55.762;38.084;2023-04-01T11:58:54;98501.66;;;9.57;66.33
53011;BME280;42803;55.762;38.084;2023-04-01T12:01:36;98510.69;;;9.48;65.61
53011;BME280;42803;55.762;38.084;2023-04-01T12:07:17;98511.50;;;10.15;64.88
53011;BME280;42803;55.762;38.084;2023-04-01T12:09:54;98509.81;;;10.02;63.57
53011;BME280;42803;55.762;38.084;2023-04-01T12:12:32;98510.22;;;10.09;63.22
53011;BME280;42803;55.762;38.084;2023-04-01T12:15:25;98507.09;;;9.60;63.69
53011;BME280;42803;55.762;38.084;2023-04-01T12:18:06;98512.50;;;9.36;64.48
53011;BME280;42803;55.762;38.084;2023-04-01T12:20:45;98507.09;;;9.46;65.60
53011;BME280;42803;55.762;38.084;2023-04-01T12:26:52;98507.50;;;9.66;69.81
53011;BME280;42803;55.762;38.084;2023-04-01T12:29:50;98510.38;;;9.70;65.52
53011;BME280;42803;55.762;38.084;2023-04-01T12:32:29;98514.84;;;9.99;64.83
53011;BME280;42803;55.762;38.084;2023-04-01T12:35:13;98513.78;;;10.24;63.06
53011;BME280;42803;55.762;38.084;2023-04-01T12:37:50;98519.22;;;10.27;64.78
53011;BME280;42803;55.762;38.084;2023-04-01T12:40:31;98520.53;;;10.48;64.42
53011;BME280;42803;55.762;38.084;2023-04-01T12:43:25;98523.13;;;10.48;63.33
53011;BME280;42803;55.762;38.084;2023-04-01T12:46:03;98516.78;;;10.58;62.23
53011;BME280;42803;55.762;38.084;2023-04-01T12:49:09;98521.19;;;10.59;62.79
53011;BME280;42803;55.762;38.084;2023-04-01T12:51:58;98529.41;;;10.37;64.25
53011;BME280;42803;55.762;38.084;2023-04-01T13:00:54;98539.28;;;10.28;62.76
53011;BME280;42803;55.762;38.084;2023-04-01T13:03:46;98536.88;;;10.74;62.07
53011;BME280;42803;55.762;38.084;2023-04-01T13:06:28;98538.72;;;10.90;60.41
53011;BME280;42803;55.762;38.084;2023-04-01T13:09:07;98539.41;;;10.87;60.18
53011;BME280;42803;55.762;38.084;2023-04-01T13:11:48;98539.72;;;10.64;61.28
53011;BME280;42803;55.762;38.084;2023-04-01T13:17:43;98540.88;;;10.13;63.03
53011;BME280;42803;55.762;38.084;2023-04-01T13:20:20;98549.94;;;9.91;63.03
53011;BME280;42803;55.762;38.084;2023-04-01T13:23:04;98544.13;;;9.95;63.86
53011;BME280;42803;55.762;38.084;2023-04-01T13:25:45;98553.56;;;9.93;63.10
53011;BME280;42803;55.762;38.084;2023-04-01T13:28:25;98548.56;;;9.70;63.75
53011;BME280;42803;55.762;38.084;2023-04-01T13:31:01;98563.19;;;9.41;64.60
53011;BME280;42803;55.762;38.084;2023-04-01T13:33:38;98571.75;;;9.14;65.44
53011;BME280;42803;55.762;38.084;2023-04-01T13:36:19;98575.84;;;9.10;67.38
53011;BME280;42803;55.762;38.084;2023-04-01T13:39:05;98577.91;;;8.89;66.82
53011;BME280;42803;55.762;38.084;2023-04-01T13:41:50;98577.75;;;8.49;64.86
53011;BME280;42803;55.762;38.084;2023-04-01T13:44:31;98578.09;;;8.42;65.53
53011;BME280;42803;55.762;38.084;2023-04-01T13:47:21;98578.69;;;8.38;66.84
53011;BME280;42803;55.762;38.084;2023-04-01T13:50:17;98583.03;;;8.63;65.93
53011;BME280;42803;55.762;38.084;2023-04-01T13:53:04;98576.06;;;8.75;65.22
53011;BME280;42803;55.762;38.084;2023-04-01T13:55:49;98584.56;;;8.47;67.28
53011;BME280;42803;55.762;38.084;2023-04-01T13:58:42;98584.69;;;8.37;66.04
53011;BME280;42803;55.762;38.084;2023-04-01T14:01:20;98588.63;;;8.32;65.62
53011;BME280;42803;55.762;38.084;2023-04-01T14:04:09;98592.72;;;8.40;66.35
53011;BME280;42803;55.762;38.084;2023-04-01T14:06:52;98592.50;;;8.37;66.26
53011;BME280;42803;55.762;38.084;2023-04-01T14:09:44;98592.59;;;8.27;67.30
53011;BME280;42803;55.762;38.084;2023-04-01T14:12:25;98594.59;;;8.31;67.71
53011;BME280;42803;55.762;38.084;2023-04-01T14:15:19;98603.25;;;8.06;68.11
53011;BME280;42803;55.762;38.084;2023-04-01T14:17:54;98599.78;;;7.94;69.45
53011;BME280;42803;55.762;38.084;2023-04-01T14:20:37;98608.25;;;7.80;73.18
53011;BME280;42803;55.762;38.084;2023-04-01T14:23:38;98608.84;;;7.76;70.80
53011;BME280;42803;55.762;38.084;2023-04-01T14:26:24;98614.38;;;7.69;70.76
53011;BME280;42803;55.762;38.084;2023-04-01T14:29:02;98611.09;;;7.60;71.51
53011;BME280;42803;55.762;38.084;2023-04-01T14:32:02;98612.75;;;7.47;71.63
53011;BME280;42803;55.762;38.084;2023-04-01T14:34:48;98614.22;;;7.32;72.69
53011;BME280;42803;55.762;38.084;2023-04-01T14:37:36;98623.44;;;7.17;73.68
53011;BME280;42803;55.762;38.084;2023-04-01T14:40:20;98624.53;;;7.08;74.38
53011;BME280;42803;55.762;38.084;2023-04-01T14:43:06;98625.66;;;7.00;74.27
53011;BME280;42803;55.762;38.084;2023-04-01T14:45:50;98622.75;;;7.07;74.87
53011;BME280;42803;55.762;38.084;2023-04-01T14:48:30;98639.19;;;6.96;75.39
53011;BME280;42803;55.762;38.084;2023-04-01T14:51:08;98636.66;;;6.86;76.69
53011;BME280;42803;55.762;38.084;2023-04-01T14:53:43;98646.13;;;6.86;77.62
53011;BME280;42803;55.762;38.084;2023-04-01T14:56:39;98636.44;;;6.83;80.95
53011;BME280;42803;55.762;38.084;2023-04-01T14:59:10;98638.44;;;6.75;82.62
53011;BME280;42803;55.762;38.084;2023-04-01T15:01:45;98643.09;;;6.79;80.83
53011;BME280;42803;55.762;38.084;2023-04-01T15:07:27;98649.22;;;6.70;83.14
53011;BME280;42803;55.762;38.084;2023-04-01T15:10:07;98654.47;;;6.81;82.97
53011;BME280;42803;55.762;38.084;2023-04-01T15:12:49;98653.88;;;7.07;82.01
53011;BME280;42803;55.762;38.084;2023-04-01T15:15:30;98653.00;;;7.07;81.16
53011;BME280;42803;55.762;38.084;2023-04-01T15:18:18;98665.13;;;6.96;82.28
53011;BME280;42803;55.762;38.084;2023-04-01T15:21:00;98657.97;;;6.82;82.31